Time;durP1;ratioP1;P1;durP2;ratioP2;P2;SDS_P1;SDS_P2;PMS_P1;PMS_P2;Temp;Humidity;BMP_temperature;BMP_pressure;BME280_temperature;BME280_humidity;BME280_pressure;Samples;Min_cycle;Max_cycle;Signal;HPM_P1;HPM_P2
2021/03/16 00:02:25;;;;;;;12.63;11.38;;;29.40;91.10;;;;;;5065144;28;20237;-53
2021/03/16 00:04:56;;;;;;;13.05;11.85;;;29.40;91.20;;;;;;5065551;28;20197;-49
2021/03/16 00:07:27;;;;;;;13.60;12.23;;;29.40;91.30;;;;;;5053523;28;20194;-51
2021/03/16 00:09:57;;;;;;;12.95;11.68;;;29.40;91.30;;;;;;5063014;28;20197;-50
2021/03/16 00:12:28;;;;;;;13.10;11.90;;;29.40;91.40;;;;;;5053059;28;20206;-50
2021/03/16 00:14:59;;;;;;;12.80;11.50;;;29.40;91.50;;;;;;5064875;28;20217;-52
2021/03/16 00:17:30;;;;;;;12.70;11.50;;;29.50;91.60;;;;;;5051570;28;20209;-50
2021/03/16 00:20:01;;;;;;;12.35;11.23;;;29.50;91.70;;;;;;5050740;28;20222;-51
2021/03/16 00:22:32;;;;;;;13.02;11.77;;;29.50;91.70;;;;;;5050566;28;20645;-51
2021/03/16 00:25:16;;;;;;;12.52;11.35;;;29.50;91.70;;;;;;5053397;28;20201;-49
2021/03/16 00:27:47;;;;;;;12.07;10.98;;;29.60;91.80;;;;;;5063955;28;20619;-49
2021/03/16 00:30:18;;;;;;;13.18;11.85;;;29.60;91.80;;;;;;5053642;28;20212;-50
2021/03/16 00:32:50;;;;;;;12.63;11.43;;;29.60;91.80;;;;;;5057254;28;20198;-52
2021/03/16 00:35:21;;;;;;;12.27;11.18;;;29.70;91.90;;;;;;5064162;28;20247;-51
2021/03/16 00:37:52;;;;;;;12.88;11.52;;;29.70;91.90;;;;;;5064556;28;20215;-50
2021/03/16 00:40:23;;;;;;;15.90;12.15;;;29.80;91.90;;;;;;5065235;28;20220;-50
2021/03/16 00:42:53;;;;;;;12.80;11.50;;;29.80;92.00;;;;;;5063861;28;20197;-50
2021/03/16 00:45:24;;;;;;;12.20;10.93;;;29.90;92.00;;;;;;5064437;28;20280;-52
2021/03/16 00:47:56;;;;;;;12.75;11.20;;;29.90;92.00;;;;;;5064484;28;20288;-53
2021/03/16 00:50:27;;;;;;;14.48;12.98;;;29.90;92.00;;;;;;5063916;28;20229;-53
2021/03/16 00:52:57;;;;;;;13.63;11.55;;;30.00;91.90;;;;;;5064699;28;20197;-52
2021/03/16 00:55:38;;;;;;;13.75;11.50;;;30.00;91.80;;;;;;5064205;28;20201;-52
2021/03/16 00:58:08;;;;;;;13.15;11.88;;;30.10;91.90;;;;;;5062216;28;20627;-52
2021/03/16 01:00:39;;;;;;;13.10;11.90;;;30.10;91.90;;;;;;5050958;28;20241;-51
2021/03/16 01:03:11;;;;;;;12.70;11.40;;;30.20;91.90;;;;;;5050054;28;20198;-51
2021/03/16 01:05:42;;;;;;;15.52;12.80;;;30.30;91.90;;;;;;5064317;28;20240;-54
2021/03/16 01:08:12;;;;;;;12.60;11.32;;;30.30;91.70;;;;;;5064081;28;20206;-53
2021/03/16 01:10:43;;;;;;;14.00;12.55;;;30.30;91.60;;;;;;5049883;28;20203;-49
2021/03/16 01:13:14;;;;;;;14.43;12.23;;;30.40;91.50;;;;;;5053500;28;20252;-53
2021/03/16 01:15:46;;;;;;;12.10;10.90;;;30.50;91.40;;;;;;5052893;28;20202;-51
2021/03/16 01:18:18;;;;;;;12.70;11.50;;;30.50;91.30;;;;;;5054763;28;20641;-50
2021/03/16 01:20:48;;;;;;;16.98;12.73;;;30.60;91.30;;;;;;5057381;28;20197;-50
2021/03/16 01:23:19;;;;;;;12.90;11.55;;;30.60;91.10;;;;;;5056868;28;20198;-49
2021/03/16 01:26:05;;;;;;;16.00;14.10;;;30.60;91.00;;;;;;5054073;28;20701;-49
2021/03/16 01:28:36;;;;;;;13.88;11.93;;;30.70;90.70;;;;;;5060533;28;20248;-52
2021/03/16 01:31:07;;;;;;;13.13;11.82;;;30.70;90.70;;;;;;5063011;28;20189;-49
2021/03/16 01:33:39;;;;;;;16.45;12.75;;;30.80;90.70;;;;;;5059807;28;20229;-50
2021/03/16 01:36:10;;;;;;;13.82;12.38;;;30.80;90.40;;;;;;5060310;28;20211;-50
2021/03/16 01:38:41;;;;;;;17.85;14.27;;;30.90;90.60;;;;;;5057756;28;20218;-51
2021/03/16 01:41:12;;;;;;;16.38;13.43;;;30.90;90.40;;;;;;5053827;28;20198;-49
2021/03/16 01:43:43;;;;;;;15.02;13.35;;;30.90;90.30;;;;;;5055724;28;20560;-52
2021/03/16 01:46:14;;;;;;;16.73;14.88;;;31.00;90.30;;;;;;5057567;28;20210;-49
2021/03/16 01:48:47;;;;;;;14.27;12.88;;;31.00;90.20;;;;;;5052380;28;20641;-49
2021/03/16 01:51:21;;;;;;;13.90;12.45;;;31.10;90.00;;;;;;5050187;28;20233;-52
2021/03/16 01:53:51;;;;;;;13.90;12.30;;;31.10;90.00;;;;;;5055300;28;20651;-51
2021/03/16 01:56:27;;;;;;;13.85;12.45;;;31.20;89.60;;;;;;5055580;28;20205;-48
2021/03/16 01:59:02;;;;;;;14.50;13.10;;;31.20;89.10;;;;;;5007456;28;20231;-50
2021/03/16 02:01:33;;;;;;;14.55;12.77;;;31.20;88.50;;;;;;4968458;28;20372;-52
2021/03/16 02:04:06;;;;;;;14.93;13.07;;;31.30;88.90;;;;;;4973027;28;20236;-49
2021/03/16 02:06:40;;;;;;;15.40;13.70;;;31.30;88.60;;;;;;4986377;28;20319;-49
2021/03/16 02:09:15;;;;;;;13.93;12.50;;;31.40;88.40;;;;;;4986648;28;20238;-49
2021/03/16 02:11:49;;;;;;;13.52;12.13;;;31.50;87.60;;;;;;4980239;28;20222;-48
2021/03/16 02:14:22;;;;;;;16.20;13.65;;;31.50;87.70;;;;;;4975920;28;20480;-49
2021/03/16 02:16:56;;;;;;;16.98;14.40;;;31.60;87.20;;;;;;4969658;28;20264;-49
2021/03/16 02:19:38;;;;;;;14.50;13.00;;;31.60;85.60;;;;;;4937590;29;21622;-49
2021/03/16 02:22:08;;;;;;;15.38;13.77;;;31.60;85.60;;;;;;4932540;29;20224;-49
2021/03/16 02:24:50;;;;;;;14.15;12.80;;;31.70;85.70;;;;;;4988232;28;21014;-49
2021/03/16 02:27:21;;;;;;;14.75;12.68;;;31.70;86.10;;;;;;4990695;28;20216;-49
2021/03/16 02:29:54;;;;;;;15.25;12.57;;;31.80;86.40;;;;;;4990471;28;20212;-49
2021/03/16 02:32:24;;;;;;;17.00;15.25;;;31.80;86.60;;;;;;5008366;28;20262;-49
2021/03/16 02:34:57;;;;;;;15.57;13.68;;;31.90;84.70;;;;;;5023935;28;20210;-49
2021/03/16 02:37:28;;;;;;;17.63;14.25;;;32.00;85.10;;;;;;5025202;28;20198;-52
2021/03/16 02:39:59;;;;;;;16.52;14.60;;;32.00;84.20;;;;;;4958003;28;20229;-49
2021/03/16 02:42:30;;;;;;;15.70;14.20;;;32.10;83.20;;;;;;4965092;28;20762;-51
2021/03/16 02:45:01;;;;;;;15.63;14.02;;;32.10;82.80;;;;;;4913414;29;20211;-52
2021/03/16 02:47:32;;;;;;;14.85;13.30;;;32.10;82.40;;;;;;4912897;29;20211;-50
2021/03/16 02:50:03;;;;;;;14.07;12.68;;;32.10;82.30;;;;;;4943953;28;20871;-51
2021/03/16 02:52:40;;;;;;;15.18;13.68;;;32.20;82.50;;;;;;4909651;29;20198;-49
2021/03/16 02:55:12;;;;;;;15.18;13.68;;;32.20;81.70;;;;;;4909658;29;20237;-50
2021/03/16 02:57:43;;;;;;;15.45;13.85;;;32.20;81.90;;;;;;4910570;29;20648;-51
2021/03/16 03:00:16;;;;;;;14.20;12.90;;;32.20;82.00;;;;;;4854100;29;20232;-51
2021/03/16 03:02:47;;;;;;;13.90;12.35;;;32.20;82.00;;;;;;4852680;29;20209;-52
2021/03/16 03:05:18;;;;;;;16.50;14.63;;;32.30;82.40;;;;;;4853193;29;20664;-49
2021/03/16 03:07:49;;;;;;;15.65;13.77;;;32.30;81.10;;;;;;4854388;29;20303;-50
2021/03/16 03:10:19;;;;;;;15.23;13.65;;;32.30;81.20;;;;;;4896776;29;20208;-54
2021/03/16 03:12:51;;;;;;;14.88;12.95;;;32.40;81.70;;;;;;4948435;29;20666;-50
2021/03/16 03:15:22;;;;;;;15.57;13.90;;;32.40;81.30;;;;;;4877393;29;20324;-49
2021/03/16 03:17:53;;;;;;;15.65;13.55;;;32.50;81.10;;;;;;4903030;29;20215;-49
2021/03/16 03:20:24;;;;;;;14.57;13.10;;;32.60;81.00;;;;;;4908250;29;20261;-49
2021/03/16 03:22:57;;;;;;;16.13;14.52;;;32.70;81.10;;;;;;4919056;28;20904;-49
2021/03/16 03:25:29;;;;;;;16.13;14.43;;;32.80;80.30;;;;;;4962976;28;20268;-49
2021/03/16 03:28:02;;;;;;;15.70;13.20;;;32.90;80.00;;;;;;4964223;28;20200;-49
2021/03/16 03:30:33;;;;;;;14.98;13.40;;;33.00;80.00;;;;;;4977499;28;20646;-48
2021/03/16 03:33:05;;;;;;;14.05;12.65;;;33.00;79.20;;;;;;5022281;28;20919;-52
2021/03/16 03:35:37;;;;;;;17.17;15.50;;;33.10;79.10;;;;;;5011782;28;20210;-48
2021/03/16 03:38:08;;;;;;;15.48;13.88;;;33.20;78.40;;;;;;5023399;28;20648;-49
2021/03/16 03:40:38;;;;;;;16.25;14.35;;;33.20;78.30;;;;;;5014569;28;20227;-49
2021/03/16 03:43:10;;;;;;;15.35;13.82;;;33.30;78.30;;;;;;5023319;28;20195;-48
2021/03/16 03:45:41;;;;;;;14.63;12.90;;;33.40;77.70;;;;;;5017076;28;20244;-49
2021/03/16 03:48:14;;;;;;;16.58;14.85;;;33.50;78.20;;;;;;5065361;28;20201;-49
2021/03/16 03:50:44;;;;;;;17.35;15.15;;;33.60;77.90;;;;;;5066525;28;20929;-48
2021/03/16 03:53:15;;;;;;;18.67;16.67;;;33.60;76.50;;;;;;5066598;28;20194;-50
2021/03/16 03:55:45;;;;;;;18.85;17.05;;;33.70;74.70;;;;;;5022656;28;20270;-50
2021/03/16 03:58:16;;;;;;;14.63;13.23;;;33.70;73.60;;;;;;5022056;28;20213;-50
2021/03/16 04:00:48;;;;;;;15.07;13.63;;;33.70;75.10;;;;;;5022682;28;20233;-48
2021/03/16 04:03:18;;;;;;;15.30;13.07;;;33.70;75.90;;;;;;5016367;28;20203;-51
2021/03/16 04:05:50;;;;;;;14.13;12.68;;;33.70;76.30;;;;;;5011793;28;20211;-51
2021/03/16 04:08:22;;;;;;;16.88;15.20;;;33.80;76.50;;;;;;5019961;28;20198;-51
2021/03/16 04:10:53;;;;;;;17.85;16.08;;;33.90;75.10;;;;;;5010342;28;20210;-53
2021/03/16 04:13:23;;;;;;;18.15;16.25;;;33.90;74.30;;;;;;5013882;28;20211;-50
2021/03/16 04:15:55;;;;;;;32.95;29.33;;;33.90;73.50;;;;;;5006939;28;20510;-50
2021/03/16 04:18:27;;;;;;;19.55;17.55;;;34.00;72.50;;;;;;5007208;28;20206;-50
2021/03/16 04:20:58;;;;;;;17.90;16.15;;;34.00;72.10;;;;;;5022112;28;20226;-54
2021/03/16 04:23:28;;;;;;;17.55;15.75;;;33.90;72.40;;;;;;5021634;28;20257;-51
2021/03/16 04:25:58;;;;;;;17.40;15.60;;;33.90;73.30;;;;;;4992111;28;20650;-50
2021/03/16 04:28:30;;;;;;;18.80;17.00;;;33.90;73.50;;;;;;5034034;28;20194;-52
2021/03/16 04:31:01;;;;;;;16.48;14.82;;;33.80;72.70;;;;;;5041054;28;20202;-50
2021/03/16 04:33:33;;;;;;;16.42;14.93;;;33.80;73.20;;;;;;5039223;28;20198;-50
2021/03/16 04:36:04;;;;;;;15.88;14.40;;;33.80;73.20;;;;;;5040413;28;20280;-49
2021/03/16 04:38:35;;;;;;;16.70;14.80;;;33.90;73.40;;;;;;5042194;28;20195;-51
2021/03/16 04:41:05;;;;;;;18.42;13.70;;;33.90;73.80;;;;;;5040326;28;20230;-49
2021/03/16 04:43:40;;;;;;;18.13;16.33;;;34.00;73.70;;;;;;5030337;28;20373;-50
2021/03/16 04:46:13;;;;;;;18.25;16.45;;;34.00;72.90;;;;;;5032958;28;20202;-48
2021/03/16 04:48:44;;;;;;;15.65;14.10;;;34.00;72.70;;;;;;5036159;28;20236;-49
2021/03/16 04:51:14;;;;;;;20.17;18.08;;;34.10;73.70;;;;;;5038820;28;20246;-48
2021/03/16 04:53:45;;;;;;;20.50;18.58;;;34.20;72.50;;;;;;5039996;28;20391;-50
2021/03/16 04:56:15;;;;;;;18.35;16.08;;;34.20;72.40;;;;;;5046126;28;20689;-48
2021/03/16 04:58:47;;;;;;;17.70;16.00;;;34.20;72.40;;;;;;5063443;28;20189;-49
2021/03/16 05:01:20;;;;;;;18.13;16.23;;;34.30;72.00;;;;;;5063970;28;20268;-49
2021/03/16 05:03:50;;;;;;;16.52;15.00;;;34.40;71.70;;;;;;5050287;28;20211;-50
2021/03/16 05:06:21;;;;;;;17.02;15.23;;;34.50;72.00;;;;;;5049557;28;20197;-48
2021/03/16 05:08:51;;;;;;;17.85;15.95;;;34.60;72.00;;;;;;5058210;28;20288;-49
2021/03/16 05:11:21;;;;;;;18.70;15.77;;;34.60;71.00;;;;;;5052000;28;20208;-50
2021/03/16 05:13:52;;;;;;;18.90;15.75;;;34.70;70.50;;;;;;5062400;28;20204;-51
2021/03/16 05:16:24;;;;;;;17.38;15.55;;;34.80;70.90;;;;;;5062263;28;20215;-51
2021/03/16 05:18:55;;;;;;;17.70;15.98;;;34.70;71.40;;;;;;5049760;28;20213;-49
2021/03/16 05:21:25;;;;;;;15.75;14.15;;;34.70;71.30;;;;;;5049378;28;20311;-50
2021/03/16 05:23:55;;;;;;;16.70;14.93;;;34.70;71.60;;;;;;5050151;28;20204;-50
2021/03/16 05:26:26;;;;;;;17.58;14.45;;;34.70;72.50;;;;;;5049793;28;20201;-49
2021/03/16 05:29:05;;;;;;;16.67;14.68;;;34.70;71.70;;;;;;5056998;28;20205;-50
2021/03/16 05:31:36;;;;;;;17.42;15.60;;;34.70;71.70;;;;;;5063845;28;20236;-49
2021/03/16 05:34:07;;;;;;;17.13;15.32;;;34.70;71.70;;;;;;5063005;28;20558;-49
2021/03/16 05:36:38;;;;;;;19.88;17.88;;;34.60;71.40;;;;;;5051580;28;20210;-50
2021/03/16 05:39:09;;;;;;;17.77;16.00;;;34.60;70.80;;;;;;5059726;28;20198;-49
2021/03/16 05:41:40;;;;;;;19.00;16.92;;;34.50;71.10;;;;;;5062713;28;20223;-51
2021/03/16 05:44:10;;;;;;;15.43;14.02;;;34.60;70.70;;;;;;5067699;28;20288;-52
2021/03/16 05:46:43;;;;;;;17.63;14.63;;;34.60;71.20;;;;;;5066244;28;20236;-52
2021/03/16 05:49:14;;;;;;;14.43;13.05;;;34.60;71.50;;;;;;5065338;28;20205;-48
2021/03/16 05:51:44;;;;;;;13.82;12.48;;;34.60;72.00;;;;;;5019486;28;20234;-49
2021/03/16 05:54:15;;;;;;;15.32;13.85;;;34.70;72.40;;;;;;5010744;28;20207;-50
2021/03/16 05:56:46;;;;;;;15.98;14.38;;;34.70;71.70;;;;;;5023532;28;20234;-50
2021/03/16 05:59:26;;;;;;;16.13;14.52;;;34.80;71.00;;;;;;5010920;28;20247;-49
2021/03/16 06:01:57;;;;;;;17.48;15.68;;;34.90;72.00;;;;;;5017610;28;20619;-53
2021/03/16 06:04:27;;;;;;;16.63;14.93;;;34.90;70.40;;;;;;5021075;28;20195;-49
2021/03/16 06:06:58;;;;;;;15.85;14.25;;;35.00;70.00;;;;;;5024188;28;20209;-51
2021/03/16 06:09:28;;;;;;;16.08;14.43;;;35.00;70.60;;;;;;5023143;28;20222;-51
2021/03/16 06:11:59;;;;;;;15.23;13.80;;;35.00;70.10;;;;;;5020833;28;20199;-51
2021/03/16 06:14:35;;;;;;;15.98;14.38;;;35.10;70.30;;;;;;5023180;28;20277;-50
2021/03/16 06:17:07;;;;;;;18.55;15.27;;;35.10;69.40;;;;;;5023872;28;20231;-51
2021/03/16 06:19:38;;;;;;;15.95;14.45;;;35.10;69.20;;;;;;5020539;28;20252;-49
2021/03/16 06:22:09;;;;;;;16.15;14.05;;;35.20;69.80;;;;;;5030912;28;20263;-48
2021/03/16 06:24:44;;;;;;;18.05;16.20;;;35.20;70.00;;;;;;5065752;28;20194;-51
2021/03/16 06:27:25;;;;;;;16.85;15.15;;;35.20;68.70;;;;;;5023877;28;20285;-49
2021/03/16 06:29:56;;;;;;;18.52;16.77;;;35.30;68.70;;;;;;5020341;28;21516;-49
2021/03/16 06:32:33;;;;;;;18.52;16.65;;;35.30;68.20;;;;;;5023318;28;20194;-49
2021/03/16 06:35:04;;;;;;;17.90;16.30;;;35.30;67.50;;;;;;5022352;28;20195;-52
2021/03/16 06:37:36;;;;;;;17.90;16.10;;;35.30;67.10;;;;;;5023639;28;20203;-49
2021/03/16 06:40:07;;;;;;;16.27;14.27;;;35.40;67.10;;;;;;5022883;28;20203;-49
2021/03/16 06:42:38;;;;;;;16.30;14.70;;;35.40;68.10;;;;;;5024216;28;20285;-49
2021/03/16 06:45:10;;;;;;;16.42;14.93;;;35.50;67.40;;;;;;5021782;28;20249;-50
2021/03/16 06:47:44;;;;;;;15.90;14.60;;;35.60;67.80;;;;;;5020438;28;20202;-53
2021/03/16 06:50:15;;;;;;;17.30;15.50;;;35.70;67.20;;;;;;5020566;28;20260;-49
2021/03/16 06:52:50;;;;;;;16.67;14.98;;;35.70;67.30;;;;;;5020761;28;20213;-52
2021/03/16 06:55:21;;;;;;;17.83;15.95;;;35.80;67.10;;;;;;5022273;28;20197;-49
2021/03/16 06:57:52;;;;;;;18.88;14.38;;;35.80;67.40;;;;;;5035775;28;20739;-49
2021/03/16 07:00:41;;;;;;;15.85;14.25;;;35.80;67.30;;;;;;5064027;28;20876;-52
2021/03/16 07:03:17;;;;;;;19.35;15.18;;;35.80;67.30;;;;;;5021378;28;20210;-49
2021/03/16 07:05:48;;;;;;;17.00;15.30;;;35.80;66.80;;;;;;5020836;28;20237;-49
2021/03/16 07:08:19;;;;;;;18.25;14.98;;;35.70;66.90;;;;;;5021020;28;20292;-50
2021/03/16 07:10:49;;;;;;;17.98;15.00;;;35.70;67.20;;;;;;5021594;28;20669;-49
2021/03/16 07:13:19;;;;;;;16.00;14.43;;;35.70;67.20;;;;;;4985281;28;20676;-50
2021/03/16 07:15:51;;;;;;;15.45;13.95;;;35.60;67.50;;;;;;4986944;28;20203;-49
2021/03/16 07:18:23;;;;;;;15.57;13.95;;;35.60;67.80;;;;;;4986449;28;20207;-48
2021/03/16 07:20:54;;;;;;;14.65;13.40;;;35.70;67.50;;;;;;4986647;28;20224;-48
2021/03/16 07:23:26;;;;;;;16.35;14.82;;;35.70;67.30;;;;;;4986486;28;20208;-49
2021/03/16 07:25:56;;;;;;;14.77;13.38;;;35.80;67.10;;;;;;4986307;28;20200;-50
2021/03/16 07:28:28;;;;;;;15.15;13.85;;;35.90;67.20;;;;;;4986540;28;20288;-49
2021/03/16 07:30:59;;;;;;;14.63;13.23;;;36.00;67.30;;;;;;4986297;28;20224;-49
2021/03/16 07:33:31;;;;;;;15.55;14.15;;;36.10;66.60;;;;;;4998227;28;20714;-51
2021/03/16 07:36:02;;;;;;;16.55;14.85;;;36.20;65.90;;;;;;5045196;28;20195;-51
2021/03/16 07:38:34;;;;;;;19.48;17.65;;;36.30;65.60;;;;;;5042924;28;20217;-53
2021/03/16 07:41:05;;;;;;;18.42;16.55;;;36.30;62.80;;;;;;5044379;28;20297;-50
2021/03/16 07:43:36;;;;;;;18.50;16.70;;;36.30;62.90;;;;;;5049508;28;20205;-52
2021/03/16 07:46:14;;;;;;;16.13;14.52;;;36.20;63.00;;;;;;5062513;28;20255;-52
2021/03/16 07:48:51;;;;;;;14.88;13.48;;;36.20;64.00;;;;;;5060733;28;20238;-48
2021/03/16 07:51:23;;;;;;;14.35;12.95;;;36.20;65.00;;;;;;5062541;28;20754;-50
2021/03/16 07:53:56;;;;;;;16.60;14.93;;;36.20;65.70;;;;;;5051228;28;20740;-48
2021/03/16 07:56:27;;;;;;;17.95;15.52;;;36.20;65.60;;;;;;5059006;28;20237;-49
2021/03/16 07:58:58;;;;;;;17.05;15.18;;;36.20;64.80;;;;;;5065977;28;20213;-49
2021/03/16 08:01:28;;;;;;;17.27;14.93;;;36.20;65.50;;;;;;5065121;28;20237;-53
2021/03/16 08:04:10;;;;;;;16.05;14.20;;;36.10;65.70;;;;;;5063085;28;20202;-52
2021/03/16 08:06:40;;;;;;;16.30;14.70;;;36.10;66.20;;;;;;5054005;28;20201;-48
2021/03/16 08:09:22;;;;;;;14.32;12.93;;;35.90;66.10;;;;;;5057730;28;20203;-49
2021/03/16 08:11:52;;;;;;;16.95;14.73;;;35.80;66.30;;;;;;5064074;28;20193;-49
2021/03/16 08:14:27;;;;;;;15.93;14.32;;;35.70;67.60;;;;;;5063639;28;20221;-50
2021/03/16 08:16:58;;;;;;;14.93;13.32;;;35.60;66.80;;;;;;5065609;28;20189;-51
2021/03/16 08:19:38;;;;;;;16.10;14.48;;;35.60;67.10;;;;;;5064904;28;20645;-52
2021/03/16 08:22:11;;;;;;;16.52;14.73;;;35.50;66.60;;;;;;5064641;28;20196;-52
2021/03/16 08:24:42;;;;;;;15.65;14.10;;;35.50;67.40;;;;;;5020944;28;20294;-52
2021/03/16 08:27:14;;;;;;;15.50;13.85;;;35.40;67.50;;;;;;5022246;28;20238;-50
2021/03/16 08:29:47;;;;;;;15.75;14.13;;;35.40;68.10;;;;;;5021002;28;20286;-49
2021/03/16 08:32:18;;;;;;;14.73;13.32;;;35.40;68.40;;;;;;5022682;28;20289;-52
2021/03/16 08:34:50;;;;;;;15.68;13.65;;;35.30;68.80;;;;;;5022091;28;20278;-51
2021/03/16 08:37:23;;;;;;;14.50;12.82;;;35.30;68.60;;;;;;5018502;28;20646;-49
2021/03/16 08:39:55;;;;;;;15.45;13.95;;;35.30;67.70;;;;;;5022502;28;20238;-50
2021/03/16 08:42:26;;;;;;;14.43;12.98;;;35.50;67.60;;;;;;5023132;28;20881;-48
2021/03/16 08:44:57;;;;;;;14.13;12.73;;;35.50;68.20;;;;;;5020278;28;20352;-49
2021/03/16 08:47:28;;;;;;;15.57;14.07;;;35.50;68.00;;;;;;5021653;28;20290;-48
2021/03/16 08:50:01;;;;;;;15.25;13.70;;;35.60;68.00;;;;;;5020810;28;20217;-48
2021/03/16 08:52:31;;;;;;;14.05;12.73;;;35.60;68.20;;;;;;5019987;28;20187;-49
2021/03/16 08:55:02;;;;;;;15.50;13.88;;;35.60;67.70;;;;;;5028338;28;20208;-49
2021/03/16 08:57:33;;;;;;;16.08;14.38;;;35.70;67.20;;;;;;5061320;28;20196;-49
2021/03/16 09:00:03;;;;;;;17.55;15.73;;;35.70;66.40;;;;;;5061724;28;20235;-50
2021/03/16 09:02:36;;;;;;;15.70;14.13;;;35.70;66.20;;;;;;5063842;28;20212;-48
2021/03/16 09:05:19;;;;;;;14.45;13.05;;;35.80;66.40;;;;;;5054698;28;20251;-49
2021/03/16 09:07:50;;;;;;;18.27;15.85;;;35.90;66.50;;;;;;5062222;28;20236;-51
2021/03/16 09:10:21;;;;;;;17.15;15.63;;;35.90;65.50;;;;;;5063939;28;20197;-50
2021/03/16 09:12:55;;;;;;;16.85;15.05;;;35.90;65.20;;;;;;5060341;28;20197;-49
2021/03/16 09:15:26;;;;;;;17.60;14.63;;;36.00;65.20;;;;;;5062215;28;20206;-52
2021/03/16 09:17:58;;;;;;;17.20;15.50;;;36.00;65.10;;;;;;5063055;28;20233;-51
2021/03/16 09:20:31;;;;;;;15.82;14.43;;;36.00;65.40;;;;;;5056777;28;20224;-50
2021/03/16 09:23:02;;;;;;;16.35;14.80;;;36.00;65.10;;;;;;5060298;28;20284;-49
2021/03/16 09:25:33;;;;;;;18.27;16.20;;;36.10;65.00;;;;;;5063567;28;20201;-50
2021/03/16 09:28:06;;;;;;;14.35;13.05;;;36.10;65.60;;;;;;5062768;28;20194;-50
2021/03/16 09:30:37;;;;;;;14.02;12.52;;;36.10;65.50;;;;;;5051909;28;20198;-49
2021/03/16 09:33:09;;;;;;;15.18;13.32;;;36.10;65.40;;;;;;5050133;28;20294;-51
2021/03/16 09:35:41;;;;;;;14.15;12.68;;;36.10;65.20;;;;;;5049853;28;20285;-51
2021/03/16 09:38:11;;;;;;;16.08;14.48;;;36.20;65.30;;;;;;5049496;28;20287;-52
2021/03/16 09:40:43;;;;;;;16.58;14.82;;;36.20;64.90;;;;;;5060368;28;20206;-50
2021/03/16 09:43:22;;;;;;;16.42;14.63;;;36.20;64.30;;;;;;5049815;28;20232;-52
2021/03/16 09:45:53;;;;;;;16.48;14.77;;;36.20;63.60;;;;;;5054996;28;20260;-50
2021/03/16 09:48:24;;;;;;;16.02;14.40;;;36.10;64.20;;;;;;5055480;28;20256;-50
2021/03/16 09:50:59;;;;;;;15.00;13.60;;;36.10;64.60;;;;;;5062804;28;20267;-48
2021/03/16 09:53:31;;;;;;;15.15;13.75;;;36.10;64.70;;;;;;5049726;28;20293;-49
2021/03/16 09:56:01;;;;;;;14.40;12.90;;;36.10;64.80;;;;;;5018407;28;20341;-51
2021/03/16 09:58:33;;;;;;;15.63;14.10;;;36.00;64.50;;;;;;5007083;28;20219;-51
2021/03/16 10:01:05;;;;;;;16.25;14.20;;;36.00;64.40;;;;;;5019073;28;20243;-50
2021/03/16 10:03:36;;;;;;;17.52;13.05;;;36.00;64.50;;;;;;5019621;28;20261;-49
2021/03/16 10:06:09;;;;;;;16.00;14.30;;;36.00;64.90;;;;;;5008917;28;20333;-52
2021/03/16 10:08:39;;;;;;;14.65;13.27;;;36.00;64.80;;;;;;5006776;28;20207;-50
2021/03/16 10:11:10;;;;;;;15.05;13.52;;;35.90;64.80;;;;;;5007715;28;20231;-50
2021/03/16 10:13:41;;;;;;;16.55;14.88;;;36.00;64.90;;;;;;4964819;28;20295;-53
2021/03/16 10:16:12;;;;;;;17.20;15.50;;;35.90;64.80;;;;;;4965683;28;20292;-50
2021/03/16 10:18:46;;;;;;;16.38;13.27;;;35.80;64.80;;;;;;4964313;28;20284;-50
2021/03/16 10:21:29;;;;;;;17.08;15.10;;;35.70;65.10;;;;;;5011338;28;20253;-52
2021/03/16 10:24:01;;;;;;;16.17;14.57;;;35.70;65.30;;;;;;5023716;28;20199;-49
2021/03/16 10:26:31;;;;;;;16.08;14.43;;;35.70;65.50;;;;;;5023130;28;20305;-52
2021/03/16 10:29:11;;;;;;;15.80;14.20;;;35.70;66.00;;;;;;5025502;28;20261;-51
2021/03/16 10:31:42;;;;;;;16.05;14.18;;;35.70;66.00;;;;;;5026547;28;20229;-49
2021/03/16 10:34:12;;;;;;;16.25;14.65;;;35.80;66.10;;;;;;5024989;28;20211;-52
2021/03/16 10:36:45;;;;;;;15.82;13.73;;;35.90;65.80;;;;;;5026963;28;20211;-52
2021/03/16 10:39:16;;;;;;;15.30;13.65;;;36.10;65.70;;;;;;5050812;28;20736;-53
2021/03/16 10:41:47;;;;;;;15.43;13.88;;;36.10;65.40;;;;;;5064787;28;20240;-49
2021/03/16 10:44:18;;;;;;;14.88;13.38;;;36.20;65.00;;;;;;5066869;28;20617;-51
2021/03/16 10:46:50;;;;;;;15.05;13.50;;;36.30;64.80;;;;;;5061952;28;20197;-52
2021/03/16 10:49:21;;;;;;;17.20;15.40;;;36.30;64.70;;;;;;5067401;28;20212;-49
2021/03/16 10:51:53;;;;;;;23.15;19.27;;;36.40;64.60;;;;;;5066014;28;20217;-52
2021/03/16 10:54:24;;;;;;;16.83;15.23;;;36.40;64.60;;;;;;5065765;28;20194;-48
2021/03/16 10:56:57;;;;;;;17.98;15.55;;;36.30;64.20;;;;;;5065851;28;20284;-50
2021/03/16 10:59:28;;;;;;;17.98;16.20;;;36.30;63.90;;;;;;5066318;28;20256;-49
2021/03/16 11:01:59;;;;;;;16.02;14.40;;;36.20;63.90;;;;;;5065459;28;20788;-49
2021/03/16 11:04:30;;;;;;;14.75;13.25;;;36.10;64.00;;;;;;5065966;28;20198;-50
2021/03/16 11:07:02;;;;;;;18.10;14.82;;;36.10;64.20;;;;;;5064963;28;20201;-53
2021/03/16 11:09:32;;;;;;;17.33;14.52;;;36.00;64.30;;;;;;5062286;28;20210;-48
2021/03/16 11:12:02;;;;;;;17.27;15.20;;;35.90;64.50;;;;;;5066146;28;20201;-49
2021/03/16 11:14:33;;;;;;;16.65;14.90;;;35.80;64.80;;;;;;5057723;28;20205;-49
2021/03/16 11:17:08;;;;;;;19.13;14.55;;;35.60;64.70;;;;;;5054464;28;20210;-48
2021/03/16 11:19:39;;;;;;;16.58;14.77;;;35.50;65.00;;;;;;5062578;28;20552;-51
2021/03/16 11:22:11;;;;;;;17.70;15.43;;;35.40;65.30;;;;;;5051776;28;20213;-49
2021/03/16 11:24:42;;;;;;;17.00;15.18;;;35.30;65.80;;;;;;5066217;28;20212;-52
2021/03/16 11:27:13;;;;;;;16.35;14.65;;;35.20;66.10;;;;;;5065279;28;20208;-48
2021/03/16 11:29:43;;;;;;;14.32;12.93;;;35.00;66.60;;;;;;5065727;28;20240;-48
2021/03/16 11:32:14;;;;;;;14.38;12.88;;;34.90;67.00;;;;;;5055419;28;20198;-49
2021/03/16 11:34:45;;;;;;;13.65;12.23;;;34.80;67.30;;;;;;5051580;28;20198;-49
2021/03/16 11:37:16;;;;;;;13.55;11.90;;;34.70;67.50;;;;;;5051587;28;20271;-51
2021/03/16 11:39:47;;;;;;;13.15;11.93;;;34.60;67.90;;;;;;5063308;28;20889;-48
2021/03/16 11:42:18;;;;;;;14.88;12.35;;;34.50;68.20;;;;;;5064471;28;20213;-48
2021/03/16 11:44:48;;;;;;;15.93;14.20;;;34.40;68.40;;;;;;5053545;28;20198;-51
2021/03/16 11:47:19;;;;;;;15.40;13.88;;;34.30;68.70;;;;;;5053900;28;20635;-54
2021/03/16 11:49:50;;;;;;;18.45;16.55;;;34.30;68.90;;;;;;5051818;28;20198;-51
2021/03/16 11:52:22;;;;;;;17.63;15.75;;;34.20;69.20;;;;;;5058683;28;20197;-51
2021/03/16 11:54:54;;;;;;;16.48;14.85;;;34.10;69.40;;;;;;5062987;28;20229;-50
2021/03/16 11:57:24;;;;;;;16.58;14.77;;;34.10;69.60;;;;;;5064768;28;20698;-51
2021/03/16 11:59:55;;;;;;;16.55;14.40;;;34.00;69.90;;;;;;5059479;28;20257;-50
2021/03/16 12:02:26;;;;;;;14.73;13.23;;;33.90;70.20;;;;;;5051045;28;20305;-51
2021/03/16 12:04:56;;;;;;;14.60;13.20;;;33.90;70.50;;;;;;5050883;28;20819;-49
2021/03/16 12:07:28;;;;;;;14.13;12.65;;;33.80;70.60;;;;;;5050703;28;20202;-48
2021/03/16 12:09:58;;;;;;;16.70;14.90;;;33.80;70.90;;;;;;5050608;28;20279;-48
2021/03/16 12:12:29;;;;;;;15.77;14.23;;;33.70;70.90;;;;;;5052939;28;20372;-50
2021/03/16 12:14:59;;;;;;;16.35;14.85;;;33.60;71.00;;;;;;5064319;28;20557;-49
2021/03/16 12:17:30;;;;;;;16.40;14.63;;;33.60;71.20;;;;;;5065459;28;20193;-51
2021/03/16 12:20:01;;;;;;;17.75;15.38;;;33.50;71.40;;;;;;5065036;28;20214;-49
2021/03/16 12:22:33;;;;;;;16.35;14.57;;;33.50;71.60;;;;;;5064422;28;20190;-48
2021/03/16 12:25:05;;;;;;;17.95;15.85;;;33.40;71.90;;;;;;5064674;28;20704;-51
2021/03/16 12:27:37;;;;;;;20.75;17.20;;;33.30;72.10;;;;;;5052273;28;20289;-51
2021/03/16 12:30:09;;;;;;;20.40;17.20;;;33.30;72.50;;;;;;5064966;28;20248;-49
2021/03/16 12:32:40;;;;;;;21.88;17.63;;;33.20;72.50;;;;;;5052462;28;20242;-53
2021/03/16 12:35:12;;;;;;;19.85;17.55;;;33.20;72.80;;;;;;5050286;28;20213;-52
2021/03/16 12:37:43;;;;;;;22.45;17.83;;;33.10;73.00;;;;;;5054870;28;20206;-49
2021/03/16 12:40:14;;;;;;;23.60;20.00;;;33.10;73.20;;;;;;5051362;28;20733;-55
2021/03/16 12:42:45;;;;;;;20.80;17.17;;;33.00;73.60;;;;;;5063590;28;20240;-51
2021/03/16 12:45:15;;;;;;;21.25;17.50;;;33.00;73.70;;;;;;5052491;28;21004;-50
2021/03/16 12:47:46;;;;;;;20.73;17.00;;;32.90;73.90;;;;;;5062915;28;20782;-51
2021/03/16 12:50:17;;;;;;;19.02;17.00;;;32.90;74.10;;;;;;5063413;28;20316;-50
2021/03/16 12:52:49;;;;;;;20.33;16.60;;;32.90;74.30;;;;;;5063489;28;20212;-51